Time;durP1;ratioP1;P1;durP2;ratioP2;P2;SDS_P1;SDS_P2;PMS_P1;PMS_P2;Temp;Humidity;BMP_temperature;BMP_pressure;BME280_temperature;BME280_humidity;BME280_pressure;Samples;Min_cycle;Max_cycle;Signal;HPM_P1;HPM_P2
2022/06/09 00:00:01;;;;;;;21.10;17.13;;;18.50;99.90;;;;;;5039383;28;20243;-75
2022/06/09 00:02:56;;;;;;;17.50;15.77;;;18.60;99.90;;;;;;5035593;28;20227;-75
2022/06/09 00:05:45;;;;;;;17.67;15.95;;;18.60;99.90;;;;;;5037119;28;21968;-76
2022/06/09 00:08:36;;;;;;;18.60;16.75;;;18.60;99.90;;;;;;5039906;28;20217;-75
2022/06/09 00:11:26;;;;;;;19.15;17.17;;;18.70;99.90;;;;;;5042285;28;20220;-76
2022/06/09 00:14:16;;;;;;;18.67;16.77;;;18.70;99.90;;;;;;5037480;28;20328;-75
2022/06/09 00:17:05;;;;;;;18.67;16.75;;;18.70;99.90;;;;;;5042736;28;20220;-75
2022/06/09 00:19:53;;;;;;;18.77;16.80;;;18.70;99.90;;;;;;5041271;28;20251;-76
2022/06/09 00:22:42;;;;;;;18.67;16.75;;;18.80;99.90;;;;;;5055677;28;20227;-75
2022/06/09 00:25:35;;;;;;;20.83;16.63;;;18.70;99.90;;;;;;5040579;28;20224;-75
2022/06/09 00:28:23;;;;;;;19.73;17.52;;;18.70;99.90;;;;;;5040677;28;20217;-75
2022/06/09 00:31:12;;;;;;;18.63;16.50;;;18.70;99.90;;;;;;5038299;28;20224;-76
2022/06/09 00:34:01;;;;;;;20.02;17.08;;;18.70;99.90;;;;;;5037715;28;20216;-77
2022/06/09 00:36:49;;;;;;;18.42;16.52;;;18.70;99.90;;;;;;5052354;28;20217;-76
2022/06/09 00:39:38;;;;;;;18.17;16.20;;;18.70;99.90;;;;;;5036880;28;20303;-76
2022/06/09 00:42:28;;;;;;;18.98;16.98;;;18.70;99.90;;;;;;5039314;28;20247;-77
2022/06/09 00:45:26;;;;;;;19.45;17.17;;;18.70;99.90;;;;;;5040855;28;20774;-76
2022/06/09 00:48:26;;;;;;;19.77;17.52;;;18.70;99.90;;;;;;5040499;28;20209;-76
2022/06/09 00:51:28;;;;;;;19.30;17.08;;;18.60;99.90;;;;;;5038284;28;20212;-77
2022/06/09 00:54:19;;;;;;;20.23;17.33;;;18.60;99.90;;;;;;5040016;28;20216;-76
2022/06/09 00:57:14;;;;;;;21.27;18.98;;;18.60;99.90;;;;;;5046301;28;20227;-76
2022/06/09 01:00:11;;;;;;;21.83;19.60;;;18.60;99.90;;;;;;5049654;28;20222;-77
2022/06/09 01:03:01;;;;;;;22.73;20.27;;;18.60;99.90;;;;;;5038414;28;20232;-76
2022/06/09 01:05:55;;;;;;;26.75;21.95;;;18.70;99.90;;;;;;5052716;28;20225;-76
2022/06/09 01:08:54;;;;;;;26.23;21.85;;;18.60;99.90;;;;;;5045100;28;20221;-76
2022/06/09 01:11:45;;;;;;;24.25;21.20;;;18.60;99.90;;;;;;5044777;28;20220;-76
2022/06/09 01:14:34;;;;;;;23.45;20.73;;;18.60;99.90;;;;;;5042005;28;20220;-76
2022/06/09 01:17:29;;;;;;;26.73;22.48;;;18.60;99.90;;;;;;5043673;28;20220;-76
2022/06/09 01:20:31;;;;;;;25.95;23.23;;;18.60;99.90;;;;;;5047785;28;20223;-75
2022/06/09 01:24:00;;;;;;;26.52;22.40;;;18.60;99.90;;;;;;5046095;28;20224;-76
2022/06/09 01:27:26;;;;;;;26.30;22.25;;;18.70;99.90;;;;;;5045433;28;20227;-76
2022/06/09 01:30:17;;;;;;;22.80;20.33;;;18.80;99.90;;;;;;5021033;28;20636;-76
2022/06/09 01:33:22;;;;;;;22.23;19.83;;;18.80;99.90;;;;;;5039365;28;20359;-76
2022/06/09 01:36:17;;;;;;;23.60;20.00;;;18.80;99.90;;;;;;5043518;28;20228;-76
2022/06/09 01:39:06;;;;;;;24.85;19.23;;;18.80;99.90;;;;;;5041555;28;20227;-76
2022/06/09 01:41:54;;;;;;;21.88;19.50;;;18.80;99.90;;;;;;5045440;28;20224;-77
2022/06/09 01:44:43;;;;;;;21.20;19.00;;;18.90;99.90;;;;;;5064144;28;20224;-77
2022/06/09 01:47:39;;;;;;;20.88;18.77;;;18.90;99.90;;;;;;5062317;28;20224;-77
2022/06/09 01:50:34;;;;;;;21.10;19.00;;;18.90;99.90;;;;;;5059652;28;20228;-76
2022/06/09 01:53:28;;;;;;;22.67;19.23;;;18.90;99.90;;;;;;5058499;28;20567;-76
2022/06/09 01:56:20;;;;;;;21.88;19.52;;;18.80;99.90;;;;;;5063922;28;20220;-76
2022/06/09 01:59:14;;;;;;;21.50;19.08;;;18.80;99.90;;;;;;5055667;28;20226;-77
2022/06/09 02:02:07;;;;;;;21.05;18.85;;;18.80;99.90;;;;;;5051337;28;21861;-76
2022/06/09 02:04:59;;;;;;;20.25;18.20;;;18.80;99.90;;;;;;5061057;28;20228;-76
2022/06/09 02:07:52;;;;;;;20.95;18.73;;;18.80;99.90;;;;;;5055642;28;20247;-76
2022/06/09 02:10:43;;;;;;;20.98;18.92;;;18.80;99.90;;;;;;5052414;28;20221;-74
2022/06/09 02:13:36;;;;;;;21.48;19.10;;;18.70;99.90;;;;;;5033428;28;20235;-74
2022/06/09 02:16:25;;;;;;;23.10;20.50;;;18.70;99.90;;;;;;5046049;28;20963;-75
2022/06/09 02:19:14;;;;;;;24.08;21.60;;;18.50;99.90;;;;;;5036839;28;20274;-74
2022/06/09 02:22:05;;;;;;;24.30;21.83;;;18.40;99.90;;;;;;5042007;28;20229;-74
2022/06/09 02:24:55;;;;;;;25.52;22.92;;;18.30;99.90;;;;;;5037144;28;20225;-74
2022/06/09 02:27:43;;;;;;;26.73;24.02;;;18.00;99.90;;;;;;5058750;28;20227;-74
2022/06/09 02:30:32;;;;;;;27.08;24.27;;;17.90;99.90;;;;;;5058373;28;20246;-74
2022/06/09 02:33:37;;;;;;;27.55;24.65;;;17.80;99.90;;;;;;5030114;28;20257;-75
2022/06/09 02:36:26;;;;;;;28.67;25.67;;;17.90;99.90;;;;;;5038436;28;20228;-74
2022/06/09 02:39:14;;;;;;;28.33;25.38;;;17.90;99.90;;;;;;5049082;28;20231;-74
2022/06/09 02:42:07;;;;;;;29.88;25.67;;;17.90;99.90;;;;;;5052087;28;20209;-77
2022/06/09 02:44:55;;;;;;;29.20;26.23;;;17.90;99.90;;;;;;5035512;28;20232;-73
2022/06/09 02:47:47;;;;;;;29.58;26.42;;;18.00;99.90;;;;;;5049262;28;20292;-74
2022/06/09 02:50:37;;;;;;;28.90;25.80;;;18.00;99.90;;;;;;5038697;28;20228;-74
2022/06/09 02:53:26;;;;;;;29.13;26.10;;;18.00;99.90;;;;;;5037141;28;20229;-74
2022/06/09 02:56:14;;;;;;;30.15;27.02;;;17.90;99.90;;;;;;5039095;28;20224;-74
2022/06/09 02:59:04;;;;;;;29.98;26.88;;;18.00;99.90;;;;;;5040959;28;20225;-73
2022/06/09 03:01:53;;;;;;;30.50;26.63;;;18.00;99.90;;;;;;5041347;28;20231;-73
2022/06/09 03:04:41;;;;;;;30.15;27.02;;;18.00;99.90;;;;;;5043079;28;20316;-74
2022/06/09 03:07:30;;;;;;;31.75;27.25;;;17.90;99.90;;;;;;5036140;28;20220;-74
2022/06/09 03:10:19;;;;;;;30.20;27.13;;;18.00;99.90;;;;;;5037353;28;20293;-77
2022/06/09 03:13:08;;;;;;;30.60;27.30;;;18.00;99.90;;;;;;5042437;28;20863;-78
2022/06/09 03:15:58;;;;;;;31.63;27.55;;;17.90;99.90;;;;;;5035892;28;20741;-77
2022/06/09 03:18:47;;;;;;;30.33;27.15;;;17.90;99.90;;;;;;5039710;28;20225;-76
2022/06/09 03:21:35;;;;;;;32.60;27.95;;;18.00;99.90;;;;;;5034598;28;21701;-76
2022/06/09 03:24:24;;;;;;;32.25;28.65;;;17.90;99.90;;;;;;5036856;28;20224;-77
2022/06/09 03:27:12;;;;;;;32.53;28.60;;;18.00;99.90;;;;;;5045177;28;20231;-77
2022/06/09 03:30:01;;;;;;;33.83;28.77;;;18.00;99.90;;;;;;5052341;28;20220;-76
2022/06/09 03:32:51;;;;;;;35.42;30.52;;;17.80;99.90;;;;;;5039218;28;20221;-74
2022/06/09 03:35:40;;;;;;;32.65;29.17;;;17.90;99.90;;;;;;5041354;28;20224;-74
2022/06/09 03:38:28;;;;;;;31.73;28.40;;;17.70;99.90;;;;;;5039031;28;20229;-74
2022/06/09 03:41:17;;;;;;;35.33;30.08;;;17.80;99.90;;;;;;5040005;28;20227;-74
2022/06/09 03:44:06;;;;;;;33.97;30.35;;;17.80;99.90;;;;;;5037400;28;20229;-76
2022/06/09 03:46:55;;;;;;;33.28;29.80;;;17.60;99.90;;;;;;5036376;28;20217;-74
2022/06/09 03:49:45;;;;;;;33.40;29.83;;;17.80;99.90;;;;;;5037292;28;20227;-74
2022/06/09 03:52:34;;;;;;;35.50;31.67;;;17.80;99.90;;;;;;5056449;28;20228;-74
2022/06/09 03:55:22;;;;;;;36.92;32.22;;;17.70;99.90;;;;;;5059054;28;20255;-74
2022/06/09 03:58:11;;;;;;;34.20;30.52;;;17.80;99.90;;;;;;5046424;28;20227;-75
2022/06/09 04:01:00;;;;;;;36.35;31.52;;;17.80;99.90;;;;;;5054508;28;20231;-74
2022/06/09 04:03:49;;;;;;;35.80;31.25;;;17.80;99.90;;;;;;5058648;28;20212;-74
2022/06/09 04:06:40;;;;;;;33.67;30.08;;;17.70;99.90;;;;;;5055619;28;20220;-76
2022/06/09 04:09:28;;;;;;;33.80;30.13;;;17.80;99.90;;;;;;5059252;28;20714;-76
2022/06/09 04:12:17;;;;;;;36.35;31.10;;;17.80;99.90;;;;;;5057993;28;20221;-75
2022/06/09 04:15:06;;;;;;;35.00;31.30;;;17.80;99.90;;;;;;5030110;28;20618;-76
2022/06/09 04:17:55;;;;;;;35.15;31.05;;;17.90;99.90;;;;;;5056438;28;20227;-76
2022/06/09 04:20:44;;;;;;;35.28;30.42;;;17.90;99.90;;;;;;5060442;28;20216;-75
2022/06/09 04:23:34;;;;;;;33.83;30.02;;;17.90;99.90;;;;;;5056886;28;20959;-75
2022/06/09 04:26:26;;;;;;;34.42;30.73;;;18.00;99.90;;;;;;5044894;28;20223;-75
2022/06/09 04:29:15;;;;;;;33.92;30.33;;;18.00;99.90;;;;;;5056888;28;20263;-75
2022/06/09 04:32:04;;;;;;;34.08;30.40;;;18.20;99.90;;;;;;5056941;28;20274;-75
2022/06/09 04:34:53;;;;;;;34.72;30.92;;;18.40;99.90;;;;;;5043530;28;20228;-75
2022/06/09 04:38:00;;;;;;;35.28;31.58;;;18.60;99.90;;;;;;5045506;28;20216;-76
2022/06/09 04:40:51;;;;;;;34.03;29.48;;;18.60;99.90;;;;;;5059582;28;20216;-75
2022/06/09 04:43:41;;;;;;;34.60;30.48;;;18.70;99.90;;;;;;5060389;28;20227;-75
2022/06/09 04:46:30;;;;;;;32.00;28.67;;;18.80;99.90;;;;;;5040372;28;20226;-75
2022/06/09 04:49:20;;;;;;;32.90;29.33;;;19.10;99.90;;;;;;5044829;28;20265;-75
2022/06/09 04:52:08;;;;;;;31.45;28.25;;;19.20;99.90;;;;;;5057319;28;20238;-76
2022/06/09 04:55:02;;;;;;;33.25;28.90;;;19.30;99.90;;;;;;5056486;28;20474;-75
2022/06/09 04:57:52;;;;;;;32.10;28.70;;;19.30;99.90;;;;;;5058803;28;20223;-76
2022/06/09 05:00:40;;;;;;;32.85;27.38;;;19.10;99.90;;;;;;5057039;28;20308;-75
2022/06/09 05:03:32;;;;;;;30.20;26.92;;;19.00;99.90;;;;;;5053131;28;20289;-75
2022/06/09 05:06:23;;;;;;;29.25;26.27;;;19.30;99.90;;;;;;5056403;28;20231;-75
2022/06/09 05:09:11;;;;;;;28.27;25.30;;;19.30;99.90;;;;;;5041186;28;20685;-76
2022/06/09 05:12:00;;;;;;;28.35;25.42;;;19.50;99.90;;;;;;5058440;28;20255;-75
2022/06/09 05:14:51;;;;;;;27.83;24.15;;;19.60;99.90;;;;;;5040846;28;20710;-76
2022/06/09 05:17:40;;;;;;;27.75;24.88;;;19.50;99.90;;;;;;5036922;28;20316;-75
2022/06/09 05:20:29;;;;;;;28.50;25.50;;;19.70;99.90;;;;;;5037712;28;20590;-76
2022/06/09 05:23:18;;;;;;;27.88;25.10;;;19.90;99.90;;;;;;5037728;28;20219;-76
2022/06/09 05:26:08;;;;;;;27.40;24.52;;;20.20;99.90;;;;;;5046437;28;20893;-75
2022/06/09 05:28:58;;;;;;;26.42;23.75;;;20.20;99.90;;;;;;5041498;28;20282;-75
2022/06/09 05:31:48;;;;;;;25.83;23.33;;;20.60;99.90;;;;;;5057850;28;20331;-75
2022/06/09 05:34:37;;;;;;;27.00;24.20;;;20.60;99.90;;;;;;5030640;28;20224;-75
2022/06/09 05:44:50;;;;;;;24.05;21.75;;;20.30;99.90;;;;;;5052107;28;20746;-75
2022/06/09 05:46:49;;;;;;;26.40;23.63;;;20.60;99.90;;;;;;5051171;28;20584;-76
2022/06/09 05:49:37;;;;;;;25.52;22.85;;;20.90;99.90;;;;;;5039961;28;20221;-77
2022/06/09 05:52:29;;;;;;;23.38;21.08;;;21.10;99.90;;;;;;5040964;28;20256;-76
2022/06/09 05:55:17;;;;;;;24.15;21.75;;;21.50;99.90;;;;;;5053052;28;20221;-75
2022/06/09 05:58:06;;;;;;;23.80;21.58;;;21.40;99.90;;;;;;5042598;28;20745;-75
2022/06/09 06:00:55;;;;;;;22.65;20.40;;;21.10;99.90;;;;;;5041732;28;20931;-74
2022/06/09 06:03:45;;;;;;;22.83;20.65;;;21.00;99.90;;;;;;5042266;28;20710;-77
2022/06/09 06:06:34;;;;;;;23.85;21.25;;;20.90;99.90;;;;;;5038891;28;20235;-74
2022/06/09 06:09:30;;;;;;;24.05;21.65;;;20.90;99.90;;;;;;5043836;28;20688;-81
2022/06/09 06:12:20;;;;;;;20.45;18.63;;;21.20;99.90;;;;;;5041702;28;20224;-75
2022/06/09 06:15:10;;;;;;;21.17;19.20;;;21.10;99.90;;;;;;5040723;28;20583;-76
2022/06/09 06:18:01;;;;;;;21.80;19.60;;;21.20;99.90;;;;;;5039421;28;21098;-78
2022/06/09 06:20:51;;;;;;;21.75;19.65;;;22.60;99.90;;;;;;5057381;28;20228;-76
2022/06/09 06:23:40;;;;;;;21.02;19.05;;;23.70;99.90;;;;;;5045715;28;20228;-75
2022/06/09 06:26:28;;;;;;;21.52;19.63;;;24.20;99.90;;;;;;5049160;28;20227;-82
2022/06/09 06:29:21;;;;;;;29.25;26.40;;;24.20;99.90;;;;;;5047803;28;20216;-76
2022/06/09 06:32:10;;;;;;;21.17;19.20;;;23.80;99.90;;;;;;5063493;28;20329;-77
2022/06/09 06:34:59;;;;;;;20.92;19.02;;;23.70;99.90;;;;;;5062529;28;20223;-78
2022/06/09 06:37:50;;;;;;;20.98;19.00;;;23.70;99.90;;;;;;5063336;28;20216;-84
2022/06/09 06:40:40;;;;;;;20.67;18.73;;;23.90;99.90;;;;;;5057395;28;20671;-76
2022/06/09 06:43:28;;;;;;;22.23;19.92;;;23.90;99.90;;;;;;5061578;28;20228;-76
2022/06/09 06:46:18;;;;;;;22.63;20.33;;;24.10;99.90;;;;;;5056877;28;20281;-78
2022/06/09 06:49:08;;;;;;;23.52;20.55;;;23.80;99.90;;;;;;5062146;28;20311;-77
2022/06/09 06:51:57;;;;;;;22.85;20.30;;;23.60;99.90;;;;;;5062080;28;20223;-79
2022/06/09 06:54:47;;;;;;;23.75;21.17;;;23.20;99.90;;;;;;5061807;28;20706;-78
2022/06/09 06:57:36;;;;;;;24.20;20.92;;;23.00;99.90;;;;;;5043448;28;20235;-78
2022/06/09 07:00:25;;;;;;;23.70;21.30;;;22.80;99.90;;;;;;5047212;28;20228;-81
2022/06/09 07:03:14;;;;;;;26.15;20.98;;;22.70;99.90;;;;;;5053747;28;20594;-77
2022/06/09 07:06:15;;;;;;;28.65;23.60;;;22.30;99.90;;;;;;5062764;28;20247;-77
2022/06/09 07:09:04;;;;;;;26.77;23.92;;;22.30;99.90;;;;;;5049897;28;20235;-74
2022/06/09 07:11:54;;;;;;;26.98;24.20;;;22.40;99.90;;;;;;5059392;28;20216;-74
2022/06/09 07:14:43;;;;;;;25.27;22.80;;;22.60;99.90;;;;;;5062144;28;20226;-75
2022/06/09 07:17:32;;;;;;;26.10;23.42;;;22.70;99.90;;;;;;5045736;28;20227;-75
2022/06/09 07:20:21;;;;;;;27.88;23.33;;;22.80;99.90;;;;;;5065044;28;20219;-75
2022/06/09 07:23:10;;;;;;;25.10;22.63;;;23.00;99.90;;;;;;5062972;28;20718;-75
2022/06/09 07:25:59;;;;;;;23.25;20.85;;;23.30;99.90;;;;;;5062966;28;20220;-74
2022/06/09 07:28:50;;;;;;;25.17;22.60;;;23.80;99.90;;;;;;5059525;28;20224;-75
2022/06/09 07:31:39;;;;;;;24.73;22.25;;;23.70;99.90;;;;;;5043148;28;20220;-75
2022/06/09 07:34:27;;;;;;;25.17;22.67;;;23.50;99.90;;;;;;5047716;28;20228;-77
2022/06/09 07:37:17;;;;;;;25.48;22.60;;;24.00;99.90;;;;;;5059982;28;20220;-76
2022/06/09 07:40:07;;;;;;;25.02;22.60;;;24.30;99.90;;;;;;5059055;28;20227;-76
2022/06/09 07:42:56;;;;;;;24.02;21.88;;;24.20;99.90;;;;;;5048625;28;20255;-74
2022/06/09 07:45:47;;;;;;;23.70;21.40;;;24.60;99.90;;;;;;5010028;28;20316;-74
2022/06/09 07:48:35;;;;;;;23.83;21.48;;;25.40;99.90;;;;;;5014736;28;20288;-75
2022/06/09 07:51:37;;;;;;;24.88;22.42;;;26.80;99.90;;;;;;5024991;28;20221;-75
2022/06/09 07:54:30;;;;;;;23.38;21.25;;;27.20;99.90;;;;;;5033525;28;20810;-75
2022/06/09 07:57:18;;;;;;;22.60;20.38;;;27.20;99.90;;;;;;5007624;28;20225;-78
2022/06/09 08:00:09;;;;;;;21.88;19.85;;;27.80;99.90;;;;;;5002555;28;20237;-75
2022/06/09 08:03:04;;;;;;;22.20;20.02;;;26.70;99.90;;;;;;5008225;28;20225;-74
2022/06/09 08:05:54;;;;;;;21.38;19.38;;;26.80;99.90;;;;;;5015787;28;20320;-74
2022/06/09 08:09:04;;;;;;;21.60;18.88;;;27.80;99.90;;;;;;5007527;28;20225;-74
2022/06/09 08:11:52;;;;;;;20.35;18.42;;;27.10;99.90;;;;;;5000791;28;20233;-74
2022/06/09 08:14:41;;;;;;;21.30;19.40;;;26.50;99.90;;;;;;5014835;28;20226;-74
2022/06/09 08:17:29;;;;;;;24.20;19.75;;;25.70;99.90;;;;;;5034441;28;20225;-74
2022/06/09 08:20:21;;;;;;;21.08;19.27;;;25.40;99.90;;;;;;5016201;28;20222;-75
2022/06/09 08:23:28;;;;;;;20.15;18.02;;;25.00;99.90;;;;;;5018942;28;22288;-75
2022/06/09 08:26:05;;;;;;;21.02;18.17;;;24.70;99.90;;;;;;5122998;23;20259;-74
2022/06/09 08:28:54;;;;;;;19.33;17.45;;;24.50;99.90;;;;;;5039445;28;20729;-75
2022/06/09 08:31:44;;;;;;;20.80;18.85;;;25.20;99.90;;;;;;5038565;28;20227;-75
2022/06/09 08:34:32;;;;;;;19.42;17.13;;;27.20;99.90;;;;;;5037739;28;20804;-75
2022/06/09 08:37:22;;;;;;;18.08;16.20;;;27.40;99.90;;;;;;5039931;28;20221;-74
2022/06/09 08:40:17;;;;;;;19.52;17.77;;;29.20;99.90;;;;;;5038088;28;20726;-74
2022/06/09 08:43:20;;;;;;;20.80;18.85;;;29.00;99.90;;;;;;5040988;28;20224;-74
2022/06/09 08:46:24;;;;;;;18.55;16.60;;;28.30;99.90;;;;;;5040852;28;20228;-74
2022/06/09 08:49:37;;;;;;;16.83;15.13;;;26.80;99.90;;;;;;5036090;28;20702;-76
2022/06/09 08:52:38;;;;;;;16.55;14.90;;;26.10;99.90;;;;;;5042020;28;20701;-74
2022/06/09 08:55:36;;;;;;;14.82;13.50;;;25.90;99.90;;;;;;5039455;28;20225;-74
2022/06/09 08:58:30;;;;;;;15.05;13.55;;;26.60;99.90;;;;;;5040010;28;20252;-74
2022/06/09 09:01:34;;;;;;;14.00;12.65;;;28.10;99.90;;;;;;5039954;28;20260;-74
2022/06/09 09:04:31;;;;;;;14.02;12.73;;;29.80;99.90;;;;;;5040352;28;20232;-74
2022/06/09 09:07:26;;;;;;;14.05;12.80;;;31.30;99.90;;;;;;5042141;28;21007;-74
2022/06/09 09:10:21;;;;;;;13.32;12.13;;;33.40;96.70;;;;;;5042322;28;20212;-74
2022/06/09 09:13:39;;;;;;;13.23;11.90;;;34.10;93.60;;;;;;5029795;28;20221;-74
2022/06/09 09:16:37;;;;;;;13.63;12.23;;;35.00;90.20;;;;;;5028367;28;20594;-73
2022/06/09 09:19:42;;;;;;;13.10;11.80;;;35.60;86.70;;;;;;5035795;28;20312;-74
2022/06/09 09:22:35;;;;;;;13.60;12.43;;;36.10;79.50;;;;;;5043782;28;20262;-73
2022/06/09 09:25:42;;;;;;;13.82;12.73;;;34.40;80.80;;;;;;5038578;28;20247;-74
2022/06/09 09:28:33;;;;;;;14.70;13.23;;;31.20;90.20;;;;;;5042865;28;20690;-73
2022/06/09 09:31:39;;;;;;;14.40;13.05;;;30.00;97.00;;;;;;5041943;28;20275;-73
2022/06/09 09:34:34;;;;;;;15.52;14.18;;;30.30;97.00;;;;;;5041846;28;20795;-73
2022/06/09 09:37:27;;;;;;;13.05;11.88;;;33.60;90.10;;;;;;5040580;28;20303;-73
2022/06/09 09:40:22;;;;;;;12.95;11.70;;;34.40;86.00;;;;;;5039756;28;20588;-73
2022/06/09 09:43:15;;;;;;;14.55;13.35;;;34.40;82.40;;;;;;5044498;28;20220;-73
2022/06/09 09:46:05;;;;;;;13.73;12.50;;;32.40;86.80;;;;;;5040934;28;20220;-73
2022/06/09 09:48:58;;;;;;;13.98;12.77;;;33.50;83.90;;;;;;5043363;28;20686;-73
2022/06/09 09:51:47;;;;;;;13.40;12.27;;;30.40;91.70;;;;;;5040393;28;20232;-73
2022/06/09 09:54:39;;;;;;;14.40;13.05;;;30.20;94.10;;;;;;5019252;28;20311;-73
2022/06/09 09:57:28;;;;;;;15.02;13.77;;;30.00;93.70;;;;;;5034347;28;20229;-73
2022/06/09 10:00:28;;;;;;;14.65;13.27;;;28.50;99.90;;;;;;5039015;28;20781;-73
2022/06/09 10:09:59;;;;;;;15.13;13.80;;;29.50;99.80;;;;;;5019637;28;20232;-73
2022/06/09 10:13:15;;;;;;;14.68;13.30;;;30.80;99.90;;;;;;5043031;28;20259;-73
2022/06/09 10:16:23;;;;;;;13.30;12.20;;;31.40;98.30;;;;;;5041411;28;20220;-73
2022/06/09 10:19:33;;;;;;;12.88;11.73;;;31.00;93.50;;;;;;5053152;28;22113;-74
2022/06/09 10:22:32;;;;;;;13.57;10.93;;;30.90;94.20;;;;;;5044288;28;20220;-73
2022/06/09 10:25:25;;;;;;;13.15;10.73;;;30.60;93.90;;;;;;5042486;28;20236;-73
2022/06/09 10:28:20;;;;;;;11.82;10.80;;;30.10;94.20;;;;;;5040271;28;20224;-73
2022/06/09 10:31:15;;;;;;;11.23;10.23;;;29.80;95.70;;;;;;5042185;28;20220;-73
2022/06/09 10:34:16;;;;;;;12.40;11.23;;;31.20;94.00;;;;;;5050393;28;20354;-74
2022/06/09 10:37:14;;;;;;;20.58;16.80;;;31.30;93.70;;;;;;5040405;28;20308;-75
2022/06/09 10:40:07;;;;;;;18.02;16.23;;;32.20;96.20;;;;;;5036274;28;20606;-73
2022/06/09 10:43:01;;;;;;;17.88;16.00;;;32.70;97.30;;;;;;5039113;28;20243;-73
2022/06/09 10:45:57;;;;;;;15.10;13.48;;;34.10;93.20;;;;;;5037606;28;21374;-74
2022/06/09 10:55:26;;;;;;;15.13;12.57;;;35.20;85.90;;;;;;5041556;28;20212;-74
2022/06/09 10:58:29;;;;;;;14.13;12.70;;;35.50;83.10;;;;;;5042998;28;20227;-73
2022/06/09 11:01:21;;;;;;;15.00;13.57;;;35.50;83.90;;;;;;5059214;28;20722;-74
2022/06/09 11:04:14;;;;;;;14.48;13.18;;;35.30;83.70;;;;;;5061775;28;20215;-73
2022/06/09 11:07:33;;;;;;;14.35;11.65;;;36.00;81.50;;;;;;5063020;28;20216;-73
2022/06/09 11:10:29;;;;;;;13.32;12.07;;;37.00;79.40;;;;;;5067808;28;20662;-71
2022/06/09 11:13:41;;;;;;;12.98;11.77;;;35.50;80.20;;;;;;5042886;28;20216;-72
2022/06/09 11:16:39;;;;;;;11.70;10.65;;;37.50;76.50;;;;;;5045997;28;20227;-72
2022/06/09 11:19:44;;;;;;;12.50;11.27;;;37.90;74.20;;;;;;5052628;28;20265;-72
2022/06/09 11:22:45;;;;;;;13.32;11.25;;;37.50;73.70;;;;;;5058317;28;20234;-72
2022/06/09 11:25:50;;;;;;;14.35;11.23;;;38.70;70.60;;;;;;5062493;28;20305;-73
2022/06/09 11:28:48;;;;;;;11.82;10.82;;;37.80;71.20;;;;;;5068702;28;20937;-72
2022/06/09 11:32:00;;;;;;;12.25;11.15;;;38.20;71.40;;;;;;5066225;28;20242;-72
2022/06/09 11:35:11;;;;;;;12.73;11.60;;;36.90;72.70;;;;;;5046763;28;20216;-72
2022/06/09 11:38:17;;;;;;;10.70;9.70;;;36.70;74.70;;;;;;5065159;28;20238;-73
2022/06/09 11:41:18;;;;;;;10.40;9.60;;;38.10;69.80;;;;;;5059363;28;20223;-73
2022/06/09 11:44:29;;;;;;;10.30;9.25;;;37.60;66.80;;;;;;5064241;28;20214;-72
2022/06/09 11:47:20;;;;;;;10.70;9.18;;;37.70;67.20;;;;;;5063223;28;20231;-73
2022/06/09 11:50:09;;;;;;;11.43;10.30;;;35.20;70.00;;;;;;5059794;28;20223;-72
2022/06/09 11:52:59;;;;;;;18.30;10.50;;;32.70;78.40;;;;;;5063474;28;20235;-71
2022/06/09 11:55:59;;;;;;;10.55;9.45;;;31.40;83.80;;;;;;5063008;28;20220;-71
2022/06/09 11:58:49;;;;;;;11.95;10.95;;;32.90;80.00;;;;;;5056490;28;20231;-73
2022/06/09 12:02:10;;;;;;;10.63;9.63;;;34.40;78.20;;;;;;5046627;28;20230;-72
2022/06/09 12:05:21;;;;;;;9.10;7.38;;;34.30;72.40;;;;;;5061648;28;20220;-72
2022/06/09 12:08:25;;;;;;;7.28;6.50;;;34.30;70.00;;;;;;5047979;28;20219;-73
2022/06/09 12:11:18;;;;;;;7.43;6.60;;;34.70;65.20;;;;;;5062640;28;20223;-73
2022/06/09 12:14:18;;;;;;;7.93;6.13;;;35.50;65.30;;;;;;5060206;28;20269;-73
2022/06/09 12:17:19;;;;;;;7.57;6.95;;;33.20;69.10;;;;;;5056310;28;20223;-74
2022/06/09 13:15:03;;;;;;;11.75;8.80;;;30.10;72.30;;;;;;5068492;27;20735;-72
2022/06/09 13:17:52;;;;;;;9.23;8.07;;;30.30;73.00;;;;;;5074504;28;20223;-72
2022/06/09 13:20:45;;;;;;;8.90;8.00;;;30.40;71.30;;;;;;5079185;28;20297;-71
2022/06/09 13:23:35;;;;;;;8.48;7.68;;;30.00;72.40;;;;;;5077565;28;20222;-72
2022/06/09 13:26:27;;;;;;;9.63;8.35;;;30.00;70.70;;;;;;5072435;28;20211;-72
2022/06/09 13:29:21;;;;;;;8.65;7.95;;;30.10;72.10;;;;;;5077504;28;20316;-72
2022/06/09 13:32:20;;;;;;;13.57;9.02;;;29.90;71.50;;;;;;5073352;28;20226;-73
2022/06/09 13:35:30;;;;;;;9.27;8.10;;;30.20;72.20;;;;;;5077086;28;20593;-73
2022/06/09 13:38:25;;;;;;;8.88;7.93;;;30.10;71.80;;;;;;5089012;28;20218;-72
2022/06/09 13:41:19;;;;;;;8.77;7.97;;;30.10;71.30;;;;;;5076533;28;20223;-73
2022/06/09 13:44:15;;;;;;;8.93;8.10;;;30.00;72.00;;;;;;5080300;28;20223;-73
2022/06/09 13:47:10;;;;;;;10.43;7.78;;;29.60;72.40;;;;;;5076752;28;20223;-73
2022/06/09 13:50:14;;;;;;;8.70;7.85;;;29.40;73.00;;;;;;5081347;28;20252;-72
2022/06/09 13:53:21;;;;;;;9.73;8.10;;;29.50;75.50;;;;;;5069542;28;20223;-72
2022/06/09 13:56:11;;;;;;;16.75;12.80;;;29.70;77.00;;;;;;5075569;28;20245;-72
2022/06/09 13:58:59;;;;;;;9.57;7.57;;;29.60;85.80;;;;;;5078843;28;20235;-72
2022/06/09 14:01:49;;;;;;;8.85;7.80;;;29.40;76.20;;;;;;5066977;28;20231;-72
2022/06/09 14:04:37;;;;;;;10.05;7.80;;;29.20;77.20;;;;;;5082851;28;20349;-72
2022/06/09 14:07:28;;;;;;;10.82;8.13;;;29.10;76.80;;;;;;5072272;28;20216;-72
2022/06/09 14:10:19;;;;;;;9.90;7.75;;;29.10;76.40;;;;;;5075518;28;20222;-72
2022/06/09 14:13:08;;;;;;;13.68;8.40;;;28.90;77.60;;;;;;5076991;28;20235;-72
2022/06/09 14:15:58;;;;;;;9.43;8.48;;;28.70;80.20;;;;;;5076640;28;20444;-72
2022/06/09 14:18:46;;;;;;;9.25;8.40;;;28.50;81.80;;;;;;5077441;28;20563;-73
2022/06/09 14:21:35;;;;;;;9.50;8.45;;;28.70;81.30;;;;;;5078486;28;20215;-71
2022/06/09 14:24:25;;;;;;;10.13;9.13;;;28.60;82.50;;;;;;5080419;28;20248;-72
2022/06/09 14:27:14;;;;;;;10.82;8.95;;;28.50;83.10;;;;;;5064071;28;20226;-72
2022/06/09 14:48:46;;;;;;;11.93;9.50;;;28.50;87.10;;;;;;5027605;28;20565;-72
2022/06/09 14:51:35;;;;;;;12.85;10.90;;;28.50;89.80;;;;;;5032915;28;20230;-70
2022/06/09 14:54:24;;;;;;;11.68;10.57;;;28.40;91.40;;;;;;5014128;28;20734;-72
2022/06/09 14:57:14;;;;;;;13.25;11.57;;;28.10;93.60;;;;;;5014152;28;20221;-70
2022/06/09 15:00:04;;;;;;;13.55;12.15;;;27.90;99.90;;;;;;5018467;28;20221;-70
2022/06/09 15:02:54;;;;;;;17.73;11.80;;;27.90;99.90;;;;;;5023623;28;20244;-70
2022/06/09 15:05:46;;;;;;;20.80;14.50;;;27.80;99.90;;;;;;5036446;28;20358;-71
2022/06/09 15:08:34;;;;;;;14.00;11.77;;;27.70;99.90;;;;;;5024066;28;20320;-72
2022/06/09 15:11:25;;;;;;;17.27;12.20;;;27.70;99.90;;;;;;5033973;28;20227;-72
2022/06/09 15:14:13;;;;;;;15.88;12.70;;;27.60;99.90;;;;;;5020090;28;20218;-72
2022/06/09 15:17:22;;;;;;;17.55;11.73;;;27.60;99.90;;;;;;5028034;28;20707;-73
2022/06/09 15:20:18;;;;;;;13.43;10.65;;;27.40;99.90;;;;;;5013819;28;20704;-71
2022/06/09 15:23:10;;;;;;;11.57;10.02;;;27.30;99.90;;;;;;5026587;28;20225;-70
2022/06/09 15:25:59;;;;;;;10.98;9.88;;;27.10;99.90;;;;;;5030015;28;20220;-73
2022/06/09 15:28:49;;;;;;;10.07;9.10;;;27.10;99.90;;;;;;5019028;28;20217;-72
2022/06/09 15:31:37;;;;;;;10.63;9.48;;;26.70;99.90;;;;;;5016792;28;20221;-72
2022/06/09 15:34:28;;;;;;;11.55;9.55;;;26.50;99.90;;;;;;5016519;28;20221;-72
2022/06/09 15:37:17;;;;;;;13.48;9.32;;;26.30;99.90;;;;;;5024298;28;20325;-72
2022/06/09 15:40:13;;;;;;;10.52;9.52;;;26.30;99.90;;;;;;5030004;28;20610;-72
2022/06/09 15:43:03;;;;;;;11.77;9.23;;;26.40;99.90;;;;;;5039248;28;20216;-76
2022/06/09 15:45:54;;;;;;;11.13;9.27;;;26.20;99.90;;;;;;5033000;28;20671;-75
2022/06/09 15:48:43;;;;;;;10.02;8.32;;;26.40;99.90;;;;;;5002014;28;20226;-72
2022/06/09 15:51:33;;;;;;;10.70;9.27;;;26.00;99.90;;;;;;4996477;28;20231;-71
2022/06/09 15:54:22;;;;;;;12.45;8.63;;;25.90;99.90;;;;;;5009235;28;20620;-77
2022/06/09 15:57:12;;;;;;;11.88;8.80;;;25.80;99.90;;;;;;4993641;28;20226;-74
2022/06/09 16:00:00;;;;;;;9.80;8.80;;;25.70;99.90;;;;;;4977620;28;20239;-74
2022/06/09 16:02:52;;;;;;;9.25;8.38;;;25.60;99.90;;;;;;4982335;28;20237;-78
2022/06/09 16:05:41;;;;;;;9.75;8.38;;;25.50;99.90;;;;;;4986618;28;20234;-75
2022/06/09 16:08:30;;;;;;;10.73;8.50;;;25.50;99.90;;;;;;5005681;28;20252;-72
2022/06/09 16:11:20;;;;;;;10.30;8.38;;;25.40;99.90;;;;;;5003826;28;20660;-74
2022/06/09 16:14:10;;;;;;;8.75;7.93;;;25.60;99.90;;;;;;4984135;28;20230;-73